Domov               UVHVVR             MKGP            O straneh              
ZDRAVSTVENO VARSTVO RASTLIN
  MREŽA AGROMET. POSTAJ
 ► PROGNOSTIČNA OBVESTILA
AGROMETEOROLOŠKI PODATKI -
ARSO
OBVLADOVANJE TVEGANJ ZARADI
NEUGODNIH VREMENSKIH RAZMER
  ► NARAVNE NESREČE
  ► SUŠA/MOČA
  ► NAMAKANJE
  ► ŽLED (gozdarstvo)
KARTOGRAFSKI PRIKAZI
SPLETNE POVEZAVE
PROJEKTI IN PUBLIKACIJE

AGROMETEOROLOŠKA MREŽA: VREMENSKE POSTAJE IN FENOLOŠKA OPAZOVANJA

Pregled podatkov za lokacijo Lendava, meteorološka postaja 42840

Pregled senzorjev na lokaciji

ID Ime Zadnja
vrednost
Datum
zadnje
spremembe
Tip
senzorja
2103 Omočenost lista (U) 0 U 17.10.2017 14:30 A730WET
2104 Temperatura 2 m ( °C) 22,29 °C 17.10.2017 14:30 50YA
2105 Relativna vlaga 2 m (% RH) 55,25 % RH 17.10.2017 14:29 50YA
2106 Padavine 0.2 mm (mm) 0 mm 17.10.2017 14:29 Rain-O-Matic

Pregled podatkov zadnjih 24 ur

Zap.
št.
Datum in čas Lendava
Omočenost
lista
Padavine
0.2
mm
Relativna
vlaga
2
m
Temperatura
2
m
0 17.10.2017 13:30 0 0 55,25 22,29
1 17.10.2017 13:00 0 0 55,22 21,99
2 17.10.2017 12:30 0 0 57,38 21,3
3 17.10.2017 12:00 0 0 57,27 20,3
4 17.10.2017 11:30 0 0 62,5 19,23
5 17.10.2017 11:00 0 0 66,34 18,14
6 17.10.2017 10:30 0 0 70,63 16,97
7 17.10.2017 10:00 0 0 81,53 14,64
8 17.10.2017 09:30 3 0 84,14 13,7
9 17.10.2017 09:00 10 0 88,86 12,92
10 17.10.2017 08:30 10 0 98,51 11,83
11 17.10.2017 08:00 10 0 99,75 10,43
12 17.10.2017 07:30 10 0 99,8 10,47
13 17.10.2017 07:00 10 0 99,55 9,63
14 17.10.2017 06:30 10 0 99,49 9,63
15 17.10.2017 06:00 10 0 99,18 9,87
16 17.10.2017 05:30 10 0 98,9 10,73
17 17.10.2017 05:00 10 0 98,55 11,15
18 17.10.2017 04:30 10 0 98,03 11,73
19 17.10.2017 04:00 10 0 97,9 12,1
20 17.10.2017 03:30 10 0 98,45 11,29
21 17.10.2017 03:00 10 0 94,88 10,86
22 17.10.2017 02:30 10 0 89,13 12,8
23 17.10.2017 02:00 10 0 92,06 12,46
24 17.10.2017 01:30 10 0 93,44 12,05
25 17.10.2017 01:00 10 0 88,27 12,67
26 17.10.2017 00:30 0 0 70 15,47
27 17.10.2017 00:00 0 0 66,27 16,38
28 16.10.2017 23:30 0 0 66,94 16,13
29 16.10.2017 23:00 0 0 63,37 16,83
30 16.10.2017 22:30 0 0 65,35 16,81
31 16.10.2017 22:00 0 0 65,3 17,03
32 16.10.2017 21:30 0 0 65,81 16,74
33 16.10.2017 21:00 0 0 66,1 16,56
34 16.10.2017 20:30 0 0 63,97 17,1
35 16.10.2017 20:00 0 0 60,19 17,6
36 16.10.2017 19:30 0 0 61,16 17,89
37 16.10.2017 19:00 0 0 60,74 18,22
38 16.10.2017 18:30 0 0 58,52 18,67
39 16.10.2017 18:00 0 0 57,03 19,12
40 16.10.2017 17:30 0 0 56,91 19,59
41 16.10.2017 17:00 0 0 56,01 20,65
42 16.10.2017 16:30 0 0 53,59 21,83
43 16.10.2017 16:00 0 0 51,14 22,72
44 16.10.2017 15:30 0 0 50,03 23,83
© 2011 Ministrstvo za kmetijstvo, gozdarstvo in prehrano. Vse pravice pridržane.